Middleswarth, Pennsylvania
Current Conditions -  °F | °C
As of 8:53 PM on Friday 21 Nov 2014 (Local Time) from KSEG Reporting Station
Clear Clear  
Wind Chill: 19°   Ceiling: Unl
Heat Index: 25°   Visibility: 10mi
Dew Point: 10°   Wind: 5mph
Humidity: 53%   Direction: 210°SSW
Pressure: 30.5"   Gusts: NA
Location:  40.7851°N, 77.0335°W
Report Text: KSEG 220153Z AUTO 21004KT 10SM CLR M04/M12 A3050 RMK AO2 SLP336 T10391122
Loading
Personal Weather Stations






























Interactive Weather Map New forecast layout! Learn more

10-Day Weather Forecast

Advertisements
Track Severe Weather on mobile